createdAt,value
2023-02-19T00:00:30.350Z,96.69
2023-02-19T00:10:51.771Z,97.56
2023-02-19T00:21:13.940Z,96.69
2023-02-19T00:31:36.058Z,96.89
2023-02-19T00:41:57.519Z,97.56
2023-02-19T00:52:18.895Z,97.98
2023-02-19T01:02:40.238Z,98.79
2023-02-19T01:13:01.586Z,99.63
2023-02-19T01:23:22.963Z,98.29
2023-02-19T01:33:46.000Z,98.47
2023-02-19T01:44:11.373Z,98.61
2023-02-19T01:54:35.302Z,97.97
2023-02-19T02:04:58.279Z,98.55
2023-02-19T02:15:19.678Z,98.22
2023-02-19T02:25:41.402Z,98.81
2023-02-19T02:36:02.758Z,98.66
2023-02-19T02:46:28.289Z,98.16
2023-02-19T02:56:50.165Z,96.75
2023-02-19T03:07:12.045Z,97.07
2023-02-19T03:18:03.291Z,97.45
2023-02-19T03:28:46.492Z,97.48
2023-02-19T03:39:09.107Z,96.60
2023-02-19T03:49:43.892Z,96.91
2023-02-19T04:00:15.566Z,96.70
2023-02-19T04:10:38.576Z,96.93
2023-02-19T04:21:00.988Z,96.35
2023-02-19T04:31:23.172Z,97.65
2023-02-19T04:41:44.624Z,96.88
2023-02-19T04:52:05.965Z,97.94
2023-02-19T05:02:27.491Z,98.41
2023-02-19T05:12:48.857Z,96.94
2023-02-19T05:23:10.207Z,96.95
2023-02-19T05:33:31.930Z,97.26
2023-02-19T05:43:53.539Z,96.97
2023-02-19T05:54:14.958Z,96.35
2023-02-19T06:04:36.309Z,97.36
2023-02-19T06:14:57.716Z,97.02
2023-02-19T06:25:19.314Z,97.54
2023-02-19T06:35:40.698Z,97.07
2023-02-19T06:46:03.218Z,96.19
2023-02-19T06:56:26.063Z,96.66
2023-02-19T07:06:47.414Z,96.19
2023-02-19T07:17:08.766Z,97.28
2023-02-19T07:27:30.141Z,96.56
2023-02-19T07:37:51.493Z,95.53
2023-02-19T07:48:12.953Z,95.04
2023-02-19T07:58:34.891Z,95.40
2023-02-19T08:08:57.856Z,95.75
2023-02-19T08:19:19.454Z,95.19
2023-02-19T08:29:40.882Z,95.54
2023-02-19T08:40:02.234Z,96.17
2023-02-19T08:50:23.719Z,95.79
2023-02-19T09:00:47.101Z,95.79
2023-02-19T09:11:08.533Z,94.49
2023-02-19T09:21:29.984Z,94.85
2023-02-19T09:31:51.407Z,93.72
2023-02-19T09:42:15.496Z,92.24
2023-02-19T09:52:38.528Z,91.57
2023-02-19T10:03:05.471Z,92.46
2023-02-19T10:13:50.130Z,91.18
2023-02-19T10:24:20.510Z,91.33
2023-02-19T10:34:41.914Z,89.05
2023-02-19T10:45:03.975Z,90.06
2023-02-19T10:55:28.418Z,83.97
2023-02-19T11:06:03.279Z,86.88
2023-02-19T11:16:36.935Z,83.60
2023-02-19T11:26:58.477Z,84.84
2023-02-19T11:37:23.910Z,82.24
2023-02-19T11:48:09.213Z,82.55
2023-02-19T11:58:33.617Z,79.35
2023-02-19T12:09:02.943Z,81.04
2023-02-19T12:19:33.328Z,82.06
2023-02-19T12:30:02.967Z,80.87
2023-02-19T12:40:39.304Z,81.40
2023-02-19T12:51:12.918Z,79.21
2023-02-19T13:01:39.007Z,76.24
2023-02-19T13:12:04.354Z,76.05
2023-02-19T13:23:13.705Z,77.03
2023-02-19T13:33:43.983Z,76.39
2023-02-19T13:44:08.266Z,77.45
2023-02-19T13:54:36.006Z,77.04
2023-02-19T14:04:57.400Z,76.45
2023-02-19T14:15:24.814Z,76.14
2023-02-19T14:25:49.131Z,74.58
2023-02-19T14:36:28.873Z,76.95
2023-02-19T14:46:50.282Z,77.15
2023-02-19T14:57:17.741Z,76.19
2023-02-19T15:07:41.289Z,75.72
2023-02-19T15:18:03.873Z,75.46
2023-02-19T15:28:25.243Z,76.44
2023-02-19T15:38:52.034Z,75.99
2023-02-19T15:49:18.235Z,77.30
2023-02-19T15:59:41.966Z,77.42
2023-02-19T16:10:16.098Z,77.24
2023-02-19T16:20:37.568Z,76.73
2023-02-19T16:31:06.862Z,76.72
2023-02-19T16:41:28.280Z,76.92
2023-02-19T16:51:50.285Z,77.27
2023-02-19T17:02:16.218Z,75.40
2023-02-19T17:12:37.591Z,78.73
2023-02-19T17:22:59.149Z,77.95
2023-02-19T17:33:20.522Z,79.46
2023-02-19T17:43:41.916Z,80.06
2023-02-19T17:54:03.342Z,80.73
2023-02-19T18:04:24.695Z,81.22
2023-02-19T18:14:46.679Z,81.61
2023-02-19T18:25:08.200Z,80.29
2023-02-19T18:35:29.571Z,82.55
2023-02-19T18:45:51.114Z,82.47
2023-02-19T18:56:12.526Z,83.01
2023-02-19T19:06:35.789Z,82.58
2023-02-19T19:16:57.266Z,82.99
2023-02-19T19:27:19.804Z,82.82
2023-02-19T19:37:41.329Z,81.69
2023-02-19T19:48:02.678Z,81.69
2023-02-19T19:58:24.812Z,82.29
2023-02-19T20:08:46.186Z,80.46
2023-02-19T20:19:07.698Z,81.89
2023-02-19T20:29:31.125Z,82.02
2023-02-19T20:39:52.512Z,83.44
2023-02-19T20:50:15.982Z,83.18
2023-02-19T21:00:37.372Z,83.76
2023-02-19T21:10:58.737Z,84.57
2023-02-19T21:21:21.166Z,84.29
2023-02-19T21:31:47.269Z,84.53
2023-02-19T21:42:08.814Z,84.23
2023-02-19T21:52:31.101Z,84.73
2023-02-19T22:02:52.468Z,84.38
2023-02-19T22:13:13.828Z,84.28
2023-02-19T22:23:35.183Z,84.57
2023-02-19T22:33:57.128Z,84.71
2023-02-19T22:44:18.690Z,83.98
2023-02-19T22:54:40.105Z,84.18
2023-02-19T23:05:01.464Z,84.58
2023-02-19T23:15:22.821Z,84.65
2023-02-19T23:25:44.156Z,84.16
2023-02-19T23:36:05.739Z,84.10
2023-02-19T23:46:27.136Z,84.06
2023-02-19T23:56:48.503Z,84.11
